sensor_id;sensor_type;location;lat;lon;timestamp;P1;durP1;ratioP1;P2;durP2;ratioP2
58876;SDS011;44659;47.002;9.536;2024-02-26T00:01:50;0.80;;;0.50;;
58876;SDS011;44659;47.002;9.536;2024-02-26T00:04:16;1.40;;;0.60;;
58876;SDS011;44659;47.002;9.536;2024-02-26T00:06:41;0.40;;;0.40;;
58876;SDS011;44659;47.002;9.536;2024-02-26T00:09:07;0.63;;;0.50;;
58876;SDS011;44659;47.002;9.536;2024-02-26T00:11:33;0.60;;;0.50;;
58876;SDS011;44659;47.002;9.536;2024-02-26T00:13:58;1.42;;;0.50;;
58876;SDS011;44659;47.002;9.536;2024-02-26T00:16:24;0.75;;;0.55;;
58876;SDS011;44659;47.002;9.536;2024-02-26T00:18:49;0.60;;;0.50;;
58876;SDS011;44659;47.002;9.536;2024-02-26T00:21:15;0.75;;;0.52;;
58876;SDS011;44659;47.002;9.536;2024-02-26T00:23:40;1.05;;;0.50;;
58876;SDS011;44659;47.002;9.536;2024-02-26T00:26:05;0.95;;;0.52;;
58876;SDS011;44659;47.002;9.536;2024-02-26T00:28:31;0.82;;;0.45;;
58876;SDS011;44659;47.002;9.536;2024-02-26T00:30:56;0.80;;;0.50;;
58876;SDS011;44659;47.002;9.536;2024-02-26T00:33:22;0.82;;;0.50;;
58876;SDS011;44659;47.002;9.536;2024-02-26T00:35:48;1.20;;;0.60;;
58876;SDS011;44659;47.002;9.536;2024-02-26T00:38:14;0.77;;;0.50;;
58876;SDS011;44659;47.002;9.536;2024-02-26T00:40:39;0.80;;;0.52;;
58876;SDS011;44659;47.002;9.536;2024-02-26T00:43:06;0.43;;;0.40;;
58876;SDS011;44659;47.002;9.536;2024-02-26T00:45:31;0.80;;;0.50;;
58876;SDS011;44659;47.002;9.536;2024-02-26T00:47:57;2.25;;;0.50;;
58876;SDS011;44659;47.002;9.536;2024-02-26T00:50:22;2.03;;;0.55;;
58876;SDS011;44659;47.002;9.536;2024-02-26T00:52:48;0.85;;;0.50;;
58876;SDS011;44659;47.002;9.536;2024-02-26T00:55:13;1.10;;;0.50;;
58876;SDS011;44659;47.002;9.536;2024-02-26T00:57:39;1.33;;;0.50;;
58876;SDS011;44659;47.002;9.536;2024-02-26T01:00:06;0.63;;;0.50;;
58876;SDS011;44659;47.002;9.536;2024-02-26T01:02:34;0.73;;;0.40;;
58876;SDS011;44659;47.002;9.536;2024-02-26T01:04:59;0.40;;;0.40;;
58876;SDS011;44659;47.002;9.536;2024-02-26T01:07:25;0.85;;;0.43;;
58876;SDS011;44659;47.002;9.536;2024-02-26T01:09:50;0.50;;;0.50;;
58876;SDS011;44659;47.002;9.536;2024-02-26T01:12:15;0.55;;;0.40;;
58876;SDS011;44659;47.002;9.536;2024-02-26T01:14:41;1.27;;;0.32;;
58876;SDS011;44659;47.002;9.536;2024-02-26T01:17:06;0.45;;;0.40;;
58876;SDS011;44659;47.002;9.536;2024-02-26T01:19:31;0.52;;;0.50;;
58876;SDS011;44659;47.002;9.536;2024-02-26T01:21:57;0.40;;;0.40;;
58876;SDS011;44659;47.002;9.536;2024-02-26T01:24:22;0.85;;;0.50;;
58876;SDS011;44659;47.002;9.536;2024-02-26T01:26:48;0.35;;;0.35;;
58876;SDS011;44659;47.002;9.536;2024-02-26T01:29:13;0.40;;;0.30;;
58876;SDS011;44659;47.002;9.536;2024-02-26T01:31:38;0.30;;;0.30;;
58876;SDS011;44659;47.002;9.536;2024-02-26T01:34:04;0.68;;;0.40;;
58876;SDS011;44659;47.002;9.536;2024-02-26T01:36:29;0.35;;;0.35;;
58876;SDS011;44659;47.002;9.536;2024-02-26T01:38:55;0.63;;;0.47;;
58876;SDS011;44659;47.002;9.536;2024-02-26T01:41:20;0.50;;;0.40;;
58876;SDS011;44659;47.002;9.536;2024-02-26T01:43:45;0.47;;;0.40;;
58876;SDS011;44659;47.002;9.536;2024-02-26T01:46:11;0.40;;;0.40;;
58876;SDS011;44659;47.002;9.536;2024-02-26T01:48:39;0.40;;;0.40;;
58876;SDS011;44659;47.002;9.536;2024-02-26T01:51:05;0.75;;;0.50;;
58876;SDS011;44659;47.002;9.536;2024-02-26T01:53:30;0.50;;;0.40;;
58876;SDS011;44659;47.002;9.536;2024-02-26T01:55:56;0.70;;;0.60;;
58876;SDS011;44659;47.002;9.536;2024-02-26T01:58:22;0.40;;;0.35;;
58876;SDS011;44659;47.002;9.536;2024-02-26T02:00:47;0.30;;;0.30;;
58876;SDS011;44659;47.002;9.536;2024-02-26T02:03:13;0.57;;;0.52;;
58876;SDS011;44659;47.002;9.536;2024-02-26T02:05:38;0.95;;;0.40;;
58876;SDS011;44659;47.002;9.536;2024-02-26T02:08:10;0.40;;;0.40;;
58876;SDS011;44659;47.002;9.536;2024-02-26T02:10:36;0.40;;;0.40;;
58876;SDS011;44659;47.002;9.536;2024-02-26T02:13:03;0.93;;;0.40;;
58876;SDS011;44659;47.002;9.536;2024-02-26T02:15:28;0.57;;;0.40;;
58876;SDS011;44659;47.002;9.536;2024-02-26T02:17:53;0.30;;;0.30;;
58876;SDS011;44659;47.002;9.536;2024-02-26T02:20:19;0.35;;;0.35;;
58876;SDS011;44659;47.002;9.536;2024-02-26T02:22:45;1.30;;;0.70;;
58876;SDS011;44659;47.002;9.536;2024-02-26T02:25:11;0.80;;;0.60;;
58876;SDS011;44659;47.002;9.536;2024-02-26T02:27:36;1.45;;;0.60;;
58876;SDS011;44659;47.002;9.536;2024-02-26T02:30:02;0.95;;;0.68;;
58876;SDS011;44659;47.002;9.536;2024-02-26T02:32:27;0.88;;;0.60;;
58876;SDS011;44659;47.002;9.536;2024-02-26T02:34:54;0.50;;;0.50;;
58876;SDS011;44659;47.002;9.536;2024-02-26T02:37:19;1.05;;;0.60;;
58876;SDS011;44659;47.002;9.536;2024-02-26T02:39:45;1.65;;;0.73;;
58876;SDS011;44659;47.002;9.536;2024-02-26T02:42:10;1.80;;;0.70;;
58876;SDS011;44659;47.002;9.536;2024-02-26T02:44:36;1.17;;;0.60;;
58876;SDS011;44659;47.002;9.536;2024-02-26T02:47:01;1.98;;;1.13;;
58876;SDS011;44659;47.002;9.536;2024-02-26T02:49:26;1.92;;;0.90;;
58876;SDS011;44659;47.002;9.536;2024-02-26T02:51:52;1.98;;;0.80;;
58876;SDS011;44659;47.002;9.536;2024-02-26T02:54:19;1.65;;;0.80;;
58876;SDS011;44659;47.002;9.536;2024-02-26T02:56:44;4.15;;;0.80;;
58876;SDS011;44659;47.002;9.536;2024-02-26T02:59:10;0.93;;;0.70;;
58876;SDS011;44659;47.002;9.536;2024-02-26T03:01:35;1.42;;;0.77;;
58876;SDS011;44659;47.002;9.536;2024-02-26T03:04:01;1.55;;;0.60;;
58876;SDS011;44659;47.002;9.536;2024-02-26T03:06:26;1.15;;;0.70;;
58876;SDS011;44659;47.002;9.536;2024-02-26T03:08:53;1.00;;;0.63;;
58876;SDS011;44659;47.002;9.536;2024-02-26T03:11:18;0.73;;;0.60;;
58876;SDS011;44659;47.002;9.536;2024-02-26T03:13:44;0.80;;;0.70;;
58876;SDS011;44659;47.002;9.536;2024-02-26T03:16:09;1.05;;;0.70;;
58876;SDS011;44659;47.002;9.536;2024-02-26T03:18:35;0.80;;;0.60;;
58876;SDS011;44659;47.002;9.536;2024-02-26T03:21:00;1.73;;;0.90;;
58876;SDS011;44659;47.002;9.536;2024-02-26T03:23:26;1.98;;;0.98;;
58876;SDS011;44659;47.002;9.536;2024-02-26T03:25:51;1.88;;;0.80;;
58876;SDS011;44659;47.002;9.536;2024-02-26T03:28:17;1.58;;;0.82;;
58876;SDS011;44659;47.002;9.536;2024-02-26T03:30:42;1.33;;;0.70;;
58876;SDS011;44659;47.002;9.536;2024-02-26T15:26:02;0.25;;;0.25;;
58876;SDS011;44659;47.002;9.536;2024-02-26T15:28:28;9.75;;;0.60;;
58876;SDS011;44659;47.002;9.536;2024-02-26T15:30:54;3.83;;;0.50;;
58876;SDS011;44659;47.002;9.536;2024-02-26T15:33:19;8.68;;;0.88;;
58876;SDS011;44659;47.002;9.536;2024-02-26T15:35:45;0.45;;;0.30;;
58876;SDS011;44659;47.002;9.536;2024-02-26T15:38:10;0.50;;;0.25;;
58876;SDS011;44659;47.002;9.536;2024-02-26T15:40:36;1.38;;;0.20;;
58876;SDS011;44659;47.002;9.536;2024-02-26T15:43:01;0.40;;;0.20;;
58876;SDS011;44659;47.002;9.536;2024-02-26T15:45:27;2.05;;;0.30;;
58876;SDS011;44659;47.002;9.536;2024-02-26T15:47:57;0.82;;;0.30;;
58876;SDS011;44659;47.002;9.536;2024-02-26T15:50:23;0.40;;;0.30;;
58876;SDS011;44659;47.002;9.536;2024-02-26T15:52:48;1.85;;;0.20;;
58876;SDS011;44659;47.002;9.536;2024-02-26T15:55:14;0.60;;;0.30;;
58876;SDS011;44659;47.002;9.536;2024-02-26T15:57:40;3.95;;;0.28;;
58876;SDS011;44659;47.002;9.536;2024-02-26T16:00:06;1.65;;;0.30;;
58876;SDS011;44659;47.002;9.536;2024-02-26T16:02:38;0.80;;;0.30;;
58876;SDS011;44659;47.002;9.536;2024-02-26T16:05:04;0.30;;;0.30;;
58876;SDS011;44659;47.002;9.536;2024-02-26T16:07:41;3.55;;;0.30;;
58876;SDS011;44659;47.002;9.536;2024-02-26T16:10:07;0.30;;;0.28;;
58876;SDS011;44659;47.002;9.536;2024-02-26T16:12:35;0.40;;;0.38;;
58876;SDS011;44659;47.002;9.536;2024-02-26T16:15:02;0.57;;;0.30;;
58876;SDS011;44659;47.002;9.536;2024-02-26T16:17:29;0.35;;;0.30;;
58876;SDS011;44659;47.002;9.536;2024-02-26T16:19:59;0.63;;;0.43;;
58876;SDS011;44659;47.002;9.536;2024-02-26T16:22:24;2.28;;;0.30;;
58876;SDS011;44659;47.002;9.536;2024-02-26T16:24:50;0.30;;;0.30;;
58876;SDS011;44659;47.002;9.536;2024-02-26T16:27:15;0.82;;;0.40;;
58876;SDS011;44659;47.002;9.536;2024-02-26T16:29:41;0.35;;;0.30;;
58876;SDS011;44659;47.002;9.536;2024-02-26T16:32:06;0.55;;;0.30;;
58876;SDS011;44659;47.002;9.536;2024-02-26T16:34:33;0.95;;;0.55;;
58876;SDS011;44659;47.002;9.536;2024-02-26T16:36:59;0.68;;;0.30;;
58876;SDS011;44659;47.002;9.536;2024-02-26T16:39:24;5.10;;;0.40;;
58876;SDS011;44659;47.002;9.536;2024-02-26T16:41:49;0.60;;;0.43;;
58876;SDS011;44659;47.002;9.536;2024-02-26T16:44:15;0.60;;;0.40;;
58876;SDS011;44659;47.002;9.536;2024-02-26T16:46:40;0.20;;;0.20;;
58876;SDS011;44659;47.002;9.536;2024-02-26T16:49:06;1.15;;;0.40;;
58876;SDS011;44659;47.002;9.536;2024-02-26T16:51:31;0.52;;;0.40;;
58876;SDS011;44659;47.002;9.536;2024-02-26T16:53:57;1.23;;;0.40;;
58876;SDS011;44659;47.002;9.536;2024-02-26T16:56:22;0.43;;;0.30;;
58876;SDS011;44659;47.002;9.536;2024-02-26T16:58:47;0.95;;;0.30;;
58876;SDS011;44659;47.002;9.536;2024-02-26T17:01:13;1.35;;;0.40;;
58876;SDS011;44659;47.002;9.536;2024-02-26T17:03:39;0.30;;;0.30;;
58876;SDS011;44659;47.002;9.536;2024-02-26T17:06:04;0.30;;;0.30;;
58876;SDS011;44659;47.002;9.536;2024-02-26T17:08:29;0.55;;;0.35;;
58876;SDS011;44659;47.002;9.536;2024-02-26T17:10:59;1.75;;;0.30;;
58876;SDS011;44659;47.002;9.536;2024-02-26T17:13:25;0.28;;;0.28;;
58876;SDS011;44659;47.002;9.536;2024-02-26T17:15:53;0.30;;;0.30;;
58876;SDS011;44659;47.002;9.536;2024-02-26T17:18:19;0.95;;;0.30;;
58876;SDS011;44659;47.002;9.536;2024-02-26T17:20:46;0.30;;;0.30;;
58876;SDS011;44659;47.002;9.536;2024-02-26T17:23:11;0.25;;;0.25;;
58876;SDS011;44659;47.002;9.536;2024-02-26T17:25:37;0.35;;;0.35;;
58876;SDS011;44659;47.002;9.536;2024-02-26T17:28:02;0.47;;;0.30;;
58876;SDS011;44659;47.002;9.536;2024-02-26T17:30:27;0.90;;;0.40;;
58876;SDS011;44659;47.002;9.536;2024-02-26T17:32:53;1.75;;;0.32;;
58876;SDS011;44659;47.002;9.536;2024-02-26T17:35:18;0.73;;;0.30;;
58876;SDS011;44659;47.002;9.536;2024-02-26T17:37:44;1.83;;;0.60;;
58876;SDS011;44659;47.002;9.536;2024-02-26T17:40:10;0.38;;;0.38;;
58876;SDS011;44659;47.002;9.536;2024-02-26T17:42:35;2.17;;;0.30;;
58876;SDS011;44659;47.002;9.536;2024-02-26T17:45:02;0.63;;;0.30;;
58876;SDS011;44659;47.002;9.536;2024-02-26T17:47:27;0.30;;;0.30;;
58876;SDS011;44659;47.002;9.536;2024-02-26T17:49:53;0.38;;;0.30;;
58876;SDS011;44659;47.002;9.536;2024-02-26T17:52:18;0.30;;;0.30;;
58876;SDS011;44659;47.002;9.536;2024-02-26T17:54:43;4.50;;;0.35;;
58876;SDS011;44659;47.002;9.536;2024-02-26T17:57:09;0.30;;;0.30;;
58876;SDS011;44659;47.002;9.536;2024-02-26T17:59:34;0.43;;;0.32;;
58876;SDS011;44659;47.002;9.536;2024-02-26T18:01:59;0.40;;;0.38;;
58876;SDS011;44659;47.002;9.536;2024-02-26T18:04:25;1.27;;;0.30;;
58876;SDS011;44659;47.002;9.536;2024-02-26T18:06:50;0.30;;;0.30;;
58876;SDS011;44659;47.002;9.536;2024-02-26T18:09:16;0.30;;;0.30;;
58876;SDS011;44659;47.002;9.536;2024-02-26T18:11:45;0.70;;;0.38;;
58876;SDS011;44659;47.002;9.536;2024-02-26T18:14:11;0.38;;;0.38;;
58876;SDS011;44659;47.002;9.536;2024-02-26T18:16:36;0.52;;;0.35;;
58876;SDS011;44659;47.002;9.536;2024-02-26T18:19:01;0.30;;;0.30;;
58876;SDS011;44659;47.002;9.536;2024-02-26T18:21:27;0.82;;;0.43;;
58876;SDS011;44659;47.002;9.536;2024-02-26T18:23:52;0.60;;;0.40;;
58876;SDS011;44659;47.002;9.536;2024-02-26T18:26:18;0.57;;;0.30;;
58876;SDS011;44659;47.002;9.536;2024-02-26T18:28:47;1.70;;;0.90;;
58876;SDS011;44659;47.002;9.536;2024-02-26T18:31:13;1.02;;;0.75;;
58876;SDS011;44659;47.002;9.536;2024-02-26T18:33:38;1.95;;;0.30;;
58876;SDS011;44659;47.002;9.536;2024-02-26T18:36:04;0.52;;;0.40;;
58876;SDS011;44659;47.002;9.536;2024-02-26T18:38:31;0.50;;;0.30;;
58876;SDS011;44659;47.002;9.536;2024-02-26T18:40:56;0.38;;;0.35;;
58876;SDS011;44659;47.002;9.536;2024-02-26T18:43:21;1.25;;;0.40;;
58876;SDS011;44659;47.002;9.536;2024-02-26T18:45:47;0.80;;;0.40;;
58876;SDS011;44659;47.002;9.536;2024-02-26T18:48:12;1.38;;;0.30;;
58876;SDS011;44659;47.002;9.536;2024-02-26T18:50:38;0.65;;;0.40;;
58876;SDS011;44659;47.002;9.536;2024-02-26T18:53:04;0.38;;;0.38;;
58876;SDS011;44659;47.002;9.536;2024-02-26T18:55:30;0.40;;;0.30;;
58876;SDS011;44659;47.002;9.536;2024-02-26T18:57:57;0.40;;;0.40;;
58876;SDS011;44659;47.002;9.536;2024-02-26T19:00:25;2.47;;;0.40;;
58876;SDS011;44659;47.002;9.536;2024-02-26T19:02:51;0.40;;;0.40;;
58876;SDS011;44659;47.002;9.536;2024-02-26T19:05:16;2.40;;;0.50;;
58876;SDS011;44659;47.002;9.536;2024-02-26T19:07:44;0.73;;;0.43;;
58876;SDS011;44659;47.002;9.536;2024-02-26T19:10:10;0.57;;;0.40;;
58876;SDS011;44659;47.002;9.536;2024-02-26T19:12:35;1.17;;;0.60;;
58876;SDS011;44659;47.002;9.536;2024-02-26T19:15:01;0.73;;;0.50;;
58876;SDS011;44659;47.002;9.536;2024-02-26T19:17:26;0.98;;;0.50;;
58876;SDS011;44659;47.002;9.536;2024-02-26T19:19:52;0.55;;;0.40;;
58876;SDS011;44659;47.002;9.536;2024-02-26T19:22:17;0.85;;;0.52;;
58876;SDS011;44659;47.002;9.536;2024-02-26T19:24:42;0.88;;;0.45;;
58876;SDS011;44659;47.002;9.536;2024-02-26T19:27:08;0.50;;;0.40;;
58876;SDS011;44659;47.002;9.536;2024-02-26T19:29:33;0.63;;;0.40;;
58876;SDS011;44659;47.002;9.536;2024-02-26T19:32:00;0.60;;;0.40;;
58876;SDS011;44659;47.002;9.536;2024-02-26T19:34:26;0.60;;;0.50;;
58876;SDS011;44659;47.002;9.536;2024-02-26T19:36:51;0.43;;;0.40;;
58876;SDS011;44659;47.002;9.536;2024-02-26T19:39:16;0.43;;;0.43;;
58876;SDS011;44659;47.002;9.536;2024-02-26T19:41:42;1.33;;;0.50;;
58876;SDS011;44659;47.002;9.536;2024-02-26T19:44:10;0.60;;;0.43;;
58876;SDS011;44659;47.002;9.536;2024-02-26T19:46:36;0.77;;;0.40;;
58876;SDS011;44659;47.002;9.536;2024-02-26T19:49:01;1.58;;;0.50;;
58876;SDS011;44659;47.002;9.536;2024-02-26T19:51:27;0.40;;;0.40;;
58876;SDS011;44659;47.002;9.536;2024-02-26T19:53:52;1.00;;;0.40;;
58876;SDS011;44659;47.002;9.536;2024-02-26T19:56:17;0.40;;;0.40;;
58876;SDS011;44659;47.002;9.536;2024-02-26T19:58:44;1.08;;;0.43;;
58876;SDS011;44659;47.002;9.536;2024-02-26T20:01:09;1.05;;;0.50;;
58876;SDS011;44659;47.002;9.536;2024-02-26T20:03:36;0.80;;;0.50;;
58876;SDS011;44659;47.002;9.536;2024-02-26T20:06:01;2.13;;;0.60;;
58876;SDS011;44659;47.002;9.536;2024-02-26T20:08:28;0.70;;;0.60;;
58876;SDS011;44659;47.002;9.536;2024-02-26T20:10:54;1.27;;;0.60;;
58876;SDS011;44659;47.002;9.536;2024-02-26T20:13:20;4.57;;;0.60;;
58876;SDS011;44659;47.002;9.536;2024-02-26T20:15:50;0.63;;;0.50;;
58876;SDS011;44659;47.002;9.536;2024-02-26T20:18:16;0.68;;;0.60;;
58876;SDS011;44659;47.002;9.536;2024-02-26T20:20:41;1.38;;;0.52;;
58876;SDS011;44659;47.002;9.536;2024-02-26T20:23:08;0.85;;;0.50;;
58876;SDS011;44659;47.002;9.536;2024-02-26T20:25:34;0.60;;;0.50;;
58876;SDS011;44659;47.002;9.536;2024-02-26T20:28:02;1.00;;;0.50;;
58876;SDS011;44659;47.002;9.536;2024-02-26T20:30:27;1.02;;;0.60;;
58876;SDS011;44659;47.002;9.536;2024-02-26T20:32:54;0.88;;;0.60;;
58876;SDS011;44659;47.002;9.536;2024-02-26T20:35:20;1.13;;;0.55;;
58876;SDS011;44659;47.002;9.536;2024-02-26T20:37:46;1.73;;;0.70;;
58876;SDS011;44659;47.002;9.536;2024-02-26T20:40:11;0.43;;;0.40;;
58876;SDS011;44659;47.002;9.536;2024-02-26T20:42:38;1.02;;;0.60;;
58876;SDS011;44659;47.002;9.536;2024-02-26T20:45:04;0.95;;;0.52;;
58876;SDS011;44659;47.002;9.536;2024-02-26T20:47:29;0.77;;;0.40;;
58876;SDS011;44659;47.002;9.536;2024-02-26T20:49:54;0.55;;;0.40;;
58876;SDS011;44659;47.002;9.536;2024-02-26T20:52:20;0.98;;;0.60;;
58876;SDS011;44659;47.002;9.536;2024-02-26T20:54:45;0.82;;;0.63;;
58876;SDS011;44659;47.002;9.536;2024-02-26T20:57:11;3.83;;;0.68;;
58876;SDS011;44659;47.002;9.536;2024-02-26T20:59:37;1.02;;;0.90;;
58876;SDS011;44659;47.002;9.536;2024-02-26T21:02:05;2.30;;;0.73;;
58876;SDS011;44659;47.002;9.536;2024-02-26T21:04:30;1.17;;;0.63;;
58876;SDS011;44659;47.002;9.536;2024-02-26T21:06:56;2.72;;;0.63;;
58876;SDS011;44659;47.002;9.536;2024-02-26T21:09:21;0.85;;;0.60;;
58876;SDS011;44659;47.002;9.536;2024-02-26T21:11:47;1.17;;;0.60;;
58876;SDS011;44659;47.002;9.536;2024-02-26T21:14:12;1.10;;;0.60;;
58876;SDS011;44659;47.002;9.536;2024-02-26T21:16:37;1.15;;;0.60;;
58876;SDS011;44659;47.002;9.536;2024-02-26T21:19:03;0.70;;;0.47;;
58876;SDS011;44659;47.002;9.536;2024-02-26T21:21:30;1.42;;;0.60;;
58876;SDS011;44659;47.002;9.536;2024-02-26T21:23:58;1.65;;;0.60;;
58876;SDS011;44659;47.002;9.536;2024-02-26T21:26:24;0.75;;;0.60;;
58876;SDS011;44659;47.002;9.536;2024-02-26T21:28:49;0.80;;;0.60;;
58876;SDS011;44659;47.002;9.536;2024-02-26T21:31:14;1.25;;;0.70;;
58876;SDS011;44659;47.002;9.536;2024-02-26T21:33:40;1.35;;;0.70;;
58876;SDS011;44659;47.002;9.536;2024-02-26T21:36:05;1.08;;;0.65;;
58876;SDS011;44659;47.002;9.536;2024-02-26T21:38:31;1.10;;;0.63;;
58876;SDS011;44659;47.002;9.536;2024-02-26T21:40:56;0.70;;;0.50;;
58876;SDS011;44659;47.002;9.536;2024-02-26T21:43:21;0.85;;;0.60;;
58876;SDS011;44659;47.002;9.536;2024-02-26T21:45:48;1.88;;;0.77;;
58876;SDS011;44659;47.002;9.536;2024-02-26T21:48:13;2.13;;;0.57;;
58876;SDS011;44659;47.002;9.536;2024-02-26T21:50:40;1.50;;;0.70;;
58876;SDS011;44659;47.002;9.536;2024-02-26T21:53:05;1.10;;;0.70;;
58876;SDS011;44659;47.002;9.536;2024-02-26T21:55:30;2.20;;;0.70;;
58876;SDS011;44659;47.002;9.536;2024-02-26T21:57:56;1.73;;;0.73;;
58876;SDS011;44659;47.002;9.536;2024-02-26T22:00:21;1.17;;;0.70;;
58876;SDS011;44659;47.002;9.536;2024-02-26T22:02:46;1.67;;;0.75;;
58876;SDS011;44659;47.002;9.536;2024-02-26T22:05:12;1.17;;;0.70;;
58876;SDS011;44659;47.002;9.536;2024-02-26T22:07:38;1.70;;;0.80;;
58876;SDS011;44659;47.002;9.536;2024-02-26T22:10:04;0.95;;;0.60;;
58876;SDS011;44659;47.002;9.536;2024-02-26T22:12:29;1.95;;;0.90;;
58876;SDS011;44659;47.002;9.536;2024-02-26T22:14:55;1.70;;;0.60;;
58876;SDS011;44659;47.002;9.536;2024-02-26T22:17:20;1.00;;;0.70;;
58876;SDS011;44659;47.002;9.536;2024-02-26T22:19:46;2.47;;;0.80;;
58876;SDS011;44659;47.002;9.536;2024-02-26T22:22:13;1.40;;;0.73;;
58876;SDS011;44659;47.002;9.536;2024-02-26T22:24:38;2.17;;;0.90;;
58876;SDS011;44659;47.002;9.536;2024-02-26T22:27:04;1.42;;;0.75;;
58876;SDS011;44659;47.002;9.536;2024-02-26T22:29:29;1.60;;;0.70;;
58876;SDS011;44659;47.002;9.536;2024-02-26T22:31:54;0.80;;;0.60;;
58876;SDS011;44659;47.002;9.536;2024-02-26T22:34:22;0.95;;;0.60;;
58876;SDS011;44659;47.002;9.536;2024-02-26T22:36:47;1.35;;;0.70;;
58876;SDS011;44659;47.002;9.536;2024-02-26T22:39:12;2.10;;;0.70;;
58876;SDS011;44659;47.002;9.536;2024-02-26T22:41:41;0.68;;;0.50;;
58876;SDS011;44659;47.002;9.536;2024-02-26T22:44:07;0.82;;;0.57;;
58876;SDS011;44659;47.002;9.536;2024-02-26T22:46:33;1.90;;;0.70;;
58876;SDS011;44659;47.002;9.536;2024-02-26T22:48:58;1.10;;;0.65;;
58876;SDS011;44659;47.002;9.536;2024-02-26T22:51:23;1.08;;;0.70;;
58876;SDS011;44659;47.002;9.536;2024-02-26T22:53:49;2.00;;;0.80;;
58876;SDS011;44659;47.002;9.536;2024-02-26T22:56:14;0.75;;;0.52;;
58876;SDS011;44659;47.002;9.536;2024-02-26T22:58:39;1.50;;;0.77;;
58876;SDS011;44659;47.002;9.536;2024-02-26T23:01:06;1.80;;;0.75;;
58876;SDS011;44659;47.002;9.536;2024-02-26T23:03:31;1.80;;;0.80;;
58876;SDS011;44659;47.002;9.536;2024-02-26T23:05:57;1.63;;;0.75;;
58876;SDS011;44659;47.002;9.536;2024-02-26T23:08:22;1.85;;;0.80;;
58876;SDS011;44659;47.002;9.536;2024-02-26T23:10:48;2.47;;;0.82;;
58876;SDS011;44659;47.002;9.536;2024-02-26T23:13:13;1.83;;;0.77;;
58876;SDS011;44659;47.002;9.536;2024-02-26T23:15:38;0.88;;;0.50;;
58876;SDS011;44659;47.002;9.536;2024-02-26T23:18:04;1.27;;;0.70;;
58876;SDS011;44659;47.002;9.536;2024-02-26T23:20:29;2.45;;;0.93;;
58876;SDS011;44659;47.002;9.536;2024-02-26T23:22:54;1.77;;;0.93;;
58876;SDS011;44659;47.002;9.536;2024-02-26T23:25:20;1.15;;;0.70;;
58876;SDS011;44659;47.002;9.536;2024-02-26T23:27:46;0.95;;;0.60;;
58876;SDS011;44659;47.002;9.536;2024-02-26T23:30:12;1.45;;;0.73;;
58876;SDS011;44659;47.002;9.536;2024-02-26T23:32:38;1.40;;;0.60;;
58876;SDS011;44659;47.002;9.536;2024-02-26T23:35:04;1.95;;;0.80;;
58876;SDS011;44659;47.002;9.536;2024-02-26T23:37:29;2.13;;;0.73;;
58876;SDS011;44659;47.002;9.536;2024-02-26T23:39:55;2.90;;;0.60;;
58876;SDS011;44659;47.002;9.536;2024-02-26T23:42:20;1.13;;;0.63;;
58876;SDS011;44659;47.002;9.536;2024-02-26T23:44:45;0.88;;;0.60;;
58876;SDS011;44659;47.002;9.536;2024-02-26T23:47:11;1.30;;;0.60;;
58876;SDS011;44659;47.002;9.536;2024-02-26T23:49:36;0.75;;;0.50;;
58876;SDS011;44659;47.002;9.536;2024-02-26T23:52:02;0.65;;;0.50;;
58876;SDS011;44659;47.002;9.536;2024-02-26T23:54:28;0.52;;;0.50;;
58876;SDS011;44659;47.002;9.536;2024-02-26T23:56:54;0.98;;;0.50;;
58876;SDS011;44659;47.002;9.536;2024-02-26T23:59:19;1.67;;;0.82;;
